Time;durP1;ratioP1;P1;durP2;ratioP2;P2;SDS_P1;SDS_P2;PMS_P1;PMS_P2;Temp;Humidity;BMP_temperature;BMP_pressure;BME280_temperature;BME280_humidity;BME280_pressure;Samples;Min_cycle;Max_cycle;Signal;HPM_P1;HPM_P2
2022/12/08 00:01:53;;;;;;;13.90;5.50;;;;;;;;;;5032952;28;20041;-91
2022/12/08 00:04:18;;;;;;;11.07;6.17;;;;;;;;;;5052242;28;20017;-92
2022/12/08 00:09:29;;;;;;;9.47;5.97;;;;;;;;;;5034645;28;20506;-92
2022/12/08 00:11:55;;;;;;;12.57;5.80;;;;;;;;;;5035317;28;20481;-92
2022/12/08 00:14:24;;;;;;;13.37;6.00;;;;;;;;;;5047680;28;20018;-91
2022/12/08 00:16:50;;;;;;;12.57;6.57;;;;;;;;;;5052963;28;20029;-92
2022/12/08 00:19:15;;;;;;;10.27;5.57;;;;;;;;;;5036993;28;20091;-91
2022/12/08 00:21:40;;;;;;;14.37;6.23;;;;;;;;;;5036869;28;20018;-94
2022/12/08 00:24:06;;;;;;;8.63;5.40;;;;;;;;;;5034232;28;20045;-93
2022/12/08 00:26:31;;;;;;;11.30;5.30;;;;;;;;;;5036459;28;20026;-92
2022/12/08 00:28:56;;;;;;;12.67;4.73;;;;;;;;;;5043239;28;20109;-92
2022/12/08 00:31:21;;;;;;;8.83;5.30;;;;;;;;;;5048466;28;20125;-92
2022/12/08 00:33:47;;;;;;;9.73;5.13;;;;;;;;;;5052613;28;20032;-93
2022/12/08 00:36:13;;;;;;;10.93;5.77;;;;;;;;;;5034882;28;20041;-94
2022/12/08 00:38:39;;;;;;;15.10;5.37;;;;;;;;;;5035175;28;20033;-92
2022/12/08 00:41:10;;;;;;;11.30;5.30;;;;;;;;;;5037705;28;20052;-92
2022/12/08 00:43:35;;;;;;;15.20;5.85;;;;;;;;;;5051771;28;20028;-91
2022/12/08 00:46:01;;;;;;;11.53;6.53;;;;;;;;;;5051809;28;20018;-92
2022/12/08 00:48:26;;;;;;;13.80;5.70;;;;;;;;;;5051714;28;20017;-93
2022/12/08 00:50:51;;;;;;;14.10;6.10;;;;;;;;;;5051649;28;20018;-92
2022/12/08 00:53:16;;;;;;;11.00;6.10;;;;;;;;;;5035202;28;20075;-92
2022/12/08 00:55:42;;;;;;;12.07;6.20;;;;;;;;;;5034784;28;20021;-92
2022/12/08 00:58:07;;;;;;;14.73;7.13;;;;;;;;;;5035076;28;20033;-93
2022/12/08 01:00:32;;;;;;;14.20;6.83;;;;;;;;;;5052250;28;20525;-94
2022/12/08 01:02:57;;;;;;;19.67;6.93;;;;;;;;;;5043762;28;20070;-92
2022/12/08 01:05:22;;;;;;;17.30;7.60;;;;;;;;;;5032247;28;20025;-92
2022/12/08 01:07:48;;;;;;;19.30;7.73;;;;;;;;;;5048347;28;20034;-92
2022/12/08 01:10:13;;;;;;;14.97;7.10;;;;;;;;;;5040223;28;20475;-93
2022/12/08 01:12:39;;;;;;;16.13;8.17;;;;;;;;;;5051067;28;20093;-92
2022/12/08 01:15:04;;;;;;;18.00;8.20;;;;;;;;;;5035020;28;20013;-93
2022/12/08 01:17:29;;;;;;;16.37;8.10;;;;;;;;;;5034088;28;20047;-93
2022/12/08 01:19:54;;;;;;;16.80;8.50;;;;;;;;;;5028050;28;20018;-92
2022/12/08 01:22:19;;;;;;;24.17;8.53;;;;;;;;;;5050910;28;20025;-92
2022/12/08 01:24:45;;;;;;;20.10;8.63;;;;;;;;;;5033996;28;20025;-94
2022/12/08 01:27:10;;;;;;;16.73;8.90;;;;;;;;;;5032927;28;20048;-93
2022/12/08 01:29:35;;;;;;;17.47;9.30;;;;;;;;;;5032936;28;20022;-93
2022/12/08 01:32:00;;;;;;;20.03;8.43;;;;;;;;;;5052320;28;20017;-92
2022/12/08 01:34:26;;;;;;;19.77;9.10;;;;;;;;;;5034180;28;20026;-94
2022/12/08 01:36:51;;;;;;;18.67;9.13;;;;;;;;;;5046916;28;20076;-92
2022/12/08 01:39:17;;;;;;;21.67;11.03;;;;;;;;;;5051279;28;20343;-92
2022/12/08 01:41:43;;;;;;;21.73;10.27;;;;;;;;;;5034883;28;20021;-93
2022/12/08 01:44:09;;;;;;;22.90;9.90;;;;;;;;;;5034270;28;20068;-93
2022/12/08 01:46:41;;;;;;;24.27;10.43;;;;;;;;;;5050522;28;20018;-93
2022/12/08 01:49:10;;;;;;;22.58;9.70;;;;;;;;;;5034224;28;20548;-92
2022/12/08 01:51:42;;;;;;;22.60;9.63;;;;;;;;;;5034807;28;20017;-93
2022/12/08 01:54:07;;;;;;;26.65;11.75;;;;;;;;;;5037580;28;20021;-92
2022/12/08 01:56:54;;;;;;;21.40;10.27;;;;;;;;;;5034390;28;20021;-92
2022/12/08 01:59:19;;;;;;;21.10;10.07;;;;;;;;;;5022498;28;20022;-92
2022/12/08 02:01:44;;;;;;;24.23;10.30;;;;;;;;;;5034489;28;20127;-93
2022/12/08 02:04:10;;;;;;;28.20;12.10;;;;;;;;;;5034735;28;20044;-92
2022/12/08 02:06:38;;;;;;;25.80;11.87;;;;;;;;;;5033934;28;20473;-94
2022/12/08 02:09:04;;;;;;;23.57;11.13;;;;;;;;;;5023113;28;20388;-93
2022/12/08 02:11:29;;;;;;;25.03;13.23;;;;;;;;;;5030799;28;20029;-92
2022/12/08 02:13:56;;;;;;;28.03;12.40;;;;;;;;;;5022785;28;20116;-92
2022/12/08 02:16:21;;;;;;;25.20;11.97;;;;;;;;;;5027811;28;20393;-92
2022/12/08 02:18:59;;;;;;;21.93;10.77;;;;;;;;;;5042413;28;20021;-91
2022/12/08 02:21:24;;;;;;;28.00;12.23;;;;;;;;;;5038775;28;20025;-93
2022/12/08 02:23:49;;;;;;;23.63;12.63;;;;;;;;;;5036090;28;20074;-93
2022/12/08 02:26:41;;;;;;;27.47;11.87;;;;;;;;;;5036058;28;20029;-92
2022/12/08 02:29:24;;;;;;;24.70;12.03;;;;;;;;;;5041011;28;20175;-93
2022/12/08 02:32:16;;;;;;;27.03;14.07;;;;;;;;;;5034464;28;20037;-92
2022/12/08 02:34:51;;;;;;;27.50;13.27;;;;;;;;;;5040361;28;20067;-92
2022/12/08 02:37:29;;;;;;;34.20;12.23;;;;;;;;;;5044775;28;20071;-92
2022/12/08 02:39:54;;;;;;;26.87;12.83;;;;;;;;;;5040797;28;20083;-92
2022/12/08 02:42:26;;;;;;;29.37;11.47;;;;;;;;;;5039992;28;20025;-93
2022/12/08 02:44:54;;;;;;;27.20;12.60;;;;;;;;;;5060712;28;20120;-93
2022/12/08 02:47:20;;;;;;;25.93;12.10;;;;;;;;;;5043268;28;20017;-92
2022/12/08 02:49:46;;;;;;;25.90;13.07;;;;;;;;;;5044723;28;20029;-92
2022/12/08 02:52:11;;;;;;;27.67;12.60;;;;;;;;;;5043313;28;20021;-92
2022/12/08 02:54:37;;;;;;;31.07;13.70;;;;;;;;;;5059801;28;20028;-92
2022/12/08 02:57:03;;;;;;;32.73;12.63;;;;;;;;;;5041095;28;20022;-92
2022/12/08 02:59:28;;;;;;;30.20;12.73;;;;;;;;;;5033655;28;20079;-92
2022/12/08 03:02:09;;;;;;;23.80;12.37;;;;;;;;;;5048775;28;20025;-91
2022/12/08 03:04:45;;;;;;;30.00;12.13;;;;;;;;;;5023200;28;20496;-92
2022/12/08 03:07:13;;;;;;;26.57;12.33;;;;;;;;;;5036618;28;20014;-92
2022/12/08 03:09:43;;;;;;;25.47;11.87;;;;;;;;;;5033599;28;20026;-92
2022/12/08 03:12:13;;;;;;;25.20;12.30;;;;;;;;;;5033418;28;20017;-92
2022/12/08 03:14:39;;;;;;;27.47;12.57;;;;;;;;;;5030369;28;20029;-92
2022/12/08 03:17:05;;;;;;;30.03;12.03;;;;;;;;;;5035852;28;20029;-93
2022/12/08 03:19:33;;;;;;;29.60;12.23;;;;;;;;;;5036827;28;20013;-92
2022/12/08 03:22:02;;;;;;;24.23;12.87;;;;;;;;;;5035685;28;20299;-91
2022/12/08 03:24:27;;;;;;;27.07;14.33;;;;;;;;;;5035716;28;20439;-90
2022/12/08 03:26:56;;;;;;;27.07;13.80;;;;;;;;;;5038142;28;20029;-91
2022/12/08 03:29:21;;;;;;;30.70;14.23;;;;;;;;;;5037745;28;20021;-91
2022/12/08 03:31:55;;;;;;;29.13;11.80;;;;;;;;;;5035745;28;20014;-92
2022/12/08 03:34:23;;;;;;;26.03;12.57;;;;;;;;;;5037004;28;20024;-93
2022/12/08 03:36:48;;;;;;;25.57;12.83;;;;;;;;;;5032065;28;20025;-92
2022/12/08 03:39:13;;;;;;;26.03;12.03;;;;;;;;;;5033443;28;20056;-92
2022/12/08 03:41:38;;;;;;;29.37;11.60;;;;;;;;;;5032360;28;20033;-92
2022/12/08 03:44:04;;;;;;;28.27;12.23;;;;;;;;;;5032149;28;20067;-92
2022/12/08 03:46:29;;;;;;;24.67;11.47;;;;;;;;;;5033237;28;20104;-92
2022/12/08 03:48:55;;;;;;;24.53;12.70;;;;;;;;;;5031590;28;20410;-91
2022/12/08 03:51:20;;;;;;;31.13;12.23;;;;;;;;;;5032109;28;20128;-91
2022/12/08 03:53:45;;;;;;;25.70;11.93;;;;;;;;;;5032082;28;20052;-90
2022/12/08 03:56:14;;;;;;;34.17;12.87;;;;;;;;;;5032803;28;20358;-90
2022/12/08 03:58:40;;;;;;;30.33;12.97;;;;;;;;;;5051353;28;20044;-90
2022/12/08 04:01:05;;;;;;;26.37;13.07;;;;;;;;;;5032544;28;20477;-91
2022/12/08 04:03:30;;;;;;;26.00;11.93;;;;;;;;;;5031873;28;20035;-91
2022/12/08 04:05:55;;;;;;;25.17;12.47;;;;;;;;;;5034067;28;20021;-92
2022/12/08 04:08:20;;;;;;;26.23;12.63;;;;;;;;;;5033490;28;20009;-92
2022/12/08 04:10:46;;;;;;;28.50;11.37;;;;;;;;;;5032914;28;20017;-92
2022/12/08 04:13:11;;;;;;;25.07;11.67;;;;;;;;;;5035246;28;20032;-94
2022/12/08 04:15:36;;;;;;;29.63;12.80;;;;;;;;;;5035089;28;20035;-93
2022/12/08 04:18:01;;;;;;;25.93;12.90;;;;;;;;;;5040796;28;20041;-94
2022/12/08 04:20:29;;;;;;;28.20;12.17;;;;;;;;;;5050212;28;20026;-94
2022/12/08 04:22:57;;;;;;;27.17;11.20;;;;;;;;;;5047460;28;20036;-93
2022/12/08 04:25:22;;;;;;;25.97;12.40;;;;;;;;;;5045366;28;20021;-93
2022/12/08 04:27:49;;;;;;;28.00;12.50;;;;;;;;;;5050219;28;20041;-93
2022/12/08 04:30:15;;;;;;;28.33;11.53;;;;;;;;;;5050586;28;20013;-92
2022/12/08 04:32:43;;;;;;;30.57;13.00;;;;;;;;;;5030912;28;20026;-93
2022/12/08 04:35:09;;;;;;;26.17;11.67;;;;;;;;;;5036074;28;20026;-92
2022/12/08 04:37:35;;;;;;;26.43;12.27;;;;;;;;;;5046009;28;20021;-92
2022/12/08 04:40:00;;;;;;;28.43;12.37;;;;;;;;;;5040182;28;20090;-93
2022/12/08 04:42:26;;;;;;;36.10;12.33;;;;;;;;;;5038131;28;20069;-93
2022/12/08 04:44:51;;;;;;;25.70;11.20;;;;;;;;;;5038365;28;20070;-93
2022/12/08 04:47:17;;;;;;;25.93;11.47;;;;;;;;;;5028857;28;20049;-93
2022/12/08 04:49:42;;;;;;;25.43;12.67;;;;;;;;;;5036846;28;20053;-92
2022/12/08 04:52:07;;;;;;;26.67;11.00;;;;;;;;;;5047330;28;20500;-93
2022/12/08 04:54:33;;;;;;;28.20;12.33;;;;;;;;;;5037061;28;20026;-92
2022/12/08 04:56:58;;;;;;;27.70;10.97;;;;;;;;;;5042445;28;20029;-92
2022/12/08 04:59:23;;;;;;;27.97;11.47;;;;;;;;;;5032571;28;20067;-93
2022/12/08 05:01:49;;;;;;;31.70;12.30;;;;;;;;;;5043836;28;20077;-92
2022/12/08 05:04:14;;;;;;;25.57;12.10;;;;;;;;;;5043765;28;20093;-91
2022/12/08 05:06:39;;;;;;;24.63;12.40;;;;;;;;;;5046616;28;20023;-92
2022/12/08 05:09:04;;;;;;;26.00;11.83;;;;;;;;;;5043557;28;20087;-92
2022/12/08 05:11:30;;;;;;;26.00;11.33;;;;;;;;;;5037091;28;20021;-92
2022/12/08 05:13:55;;;;;;;33.73;11.00;;;;;;;;;;5045772;28;20030;-92
2022/12/08 05:16:21;;;;;;;23.83;11.87;;;;;;;;;;5045065;28;20036;-92
2022/12/08 05:18:46;;;;;;;25.50;11.10;;;;;;;;;;5043828;28;20029;-92
2022/12/08 05:21:11;;;;;;;23.90;10.87;;;;;;;;;;5043121;28;20032;-91
2022/12/08 05:23:36;;;;;;;25.20;10.60;;;;;;;;;;5042574;28;20091;-92
2022/12/08 05:26:02;;;;;;;20.97;10.93;;;;;;;;;;5036951;28;20108;-93
2022/12/08 05:28:27;;;;;;;21.80;9.97;;;;;;;;;;5036528;28;20473;-93
2022/12/08 05:30:52;;;;;;;24.77;10.27;;;;;;;;;;5035093;28;20043;-95
2022/12/08 05:33:17;;;;;;;24.63;10.40;;;;;;;;;;5035601;28;20017;-95
2022/12/08 05:35:44;;;;;;;26.20;9.90;;;;;;;;;;5033966;28;20024;-94
2022/12/08 05:38:11;;;;;;;21.97;10.37;;;;;;;;;;5050070;28;20515;-93
2022/12/08 05:40:37;;;;;;;19.07;9.60;;;;;;;;;;5033860;28;20026;-94
2022/12/08 05:43:03;;;;;;;22.87;10.07;;;;;;;;;;5033917;28;20025;-94
2022/12/08 05:45:29;;;;;;;22.03;9.20;;;;;;;;;;5033795;28;20017;-94
2022/12/08 05:47:54;;;;;;;25.90;9.70;;;;;;;;;;5050310;28;20024;-93
2022/12/08 05:50:19;;;;;;;19.37;9.57;;;;;;;;;;5049495;28;20040;-93
2022/12/08 05:52:44;;;;;;;20.30;9.50;;;;;;;;;;5033642;28;20029;-93
2022/12/08 05:55:10;;;;;;;22.00;9.57;;;;;;;;;;5033806;28;20021;-93
2022/12/08 05:57:35;;;;;;;21.97;9.43;;;;;;;;;;5033644;28;20322;-94
2022/12/08 06:00:00;;;;;;;21.63;9.57;;;;;;;;;;5033396;28;20112;-94
2022/12/08 06:02:25;;;;;;;23.30;9.27;;;;;;;;;;5032769;28;20160;-94
2022/12/08 06:04:51;;;;;;;20.60;9.10;;;;;;;;;;5033504;28;20018;-93
2022/12/08 06:07:16;;;;;;;25.70;9.73;;;;;;;;;;5033330;28;20500;-92
2022/12/08 06:09:41;;;;;;;16.73;8.43;;;;;;;;;;5032398;28;20021;-94
2022/12/08 06:12:07;;;;;;;21.37;8.90;;;;;;;;;;5019585;28;20113;-93
2022/12/08 06:14:32;;;;;;;23.13;8.97;;;;;;;;;;5049982;28;20446;-92
2022/12/08 06:16:57;;;;;;;18.63;8.10;;;;;;;;;;5046912;28;20037;-92
2022/12/08 06:19:22;;;;;;;14.93;8.23;;;;;;;;;;5048524;28;20029;-92
2022/12/08 06:21:47;;;;;;;23.10;8.87;;;;;;;;;;5049954;28;20412;-92
2022/12/08 06:24:13;;;;;;;19.07;9.33;;;;;;;;;;5049955;28;20018;-92
2022/12/08 06:26:40;;;;;;;19.20;8.67;;;;;;;;;;5042024;28;20036;-91
2022/12/08 06:29:05;;;;;;;19.90;9.43;;;;;;;;;;5047164;28;20124;-93
2022/12/08 06:31:30;;;;;;;21.57;9.00;;;;;;;;;;5033070;28;20049;-93
2022/12/08 06:33:56;;;;;;;17.23;8.40;;;;;;;;;;5032833;28;20032;-92
2022/12/08 06:36:22;;;;;;;19.33;7.83;;;;;;;;;;5045320;28;20592;-92
2022/12/08 06:38:48;;;;;;;18.37;8.00;;;;;;;;;;5033852;28;20033;-91
2022/12/08 06:41:13;;;;;;;19.67;9.40;;;;;;;;;;5033426;28;20075;-91
2022/12/08 06:43:39;;;;;;;19.40;9.07;;;;;;;;;;5051211;28;20468;-91
2022/12/08 06:46:06;;;;;;;22.30;9.63;;;;;;;;;;5033438;28;20055;-91
2022/12/08 06:48:31;;;;;;;21.90;10.57;;;;;;;;;;5032695;28;20025;-90
2022/12/08 06:50:56;;;;;;;22.37;9.27;;;;;;;;;;5034911;28;20097;-89
2022/12/08 06:53:22;;;;;;;23.57;11.37;;;;;;;;;;5036481;28;20056;-92
2022/12/08 06:55:57;;;;;;;25.87;11.43;;;;;;;;;;5037650;28;20025;-93
2022/12/08 06:58:22;;;;;;;23.70;10.00;;;;;;;;;;5033118;28;20025;-90
2022/12/08 07:00:47;;;;;;;24.97;11.17;;;;;;;;;;5034303;28;20035;-92
2022/12/08 07:03:13;;;;;;;25.77;10.97;;;;;;;;;;5034629;28;20108;-91
2022/12/08 07:05:38;;;;;;;24.20;11.17;;;;;;;;;;5039351;28;20026;-92
2022/12/08 07:08:05;;;;;;;26.03;10.83;;;;;;;;;;5039775;28;20040;-91
2022/12/08 07:10:31;;;;;;;27.03;10.53;;;;;;;;;;5039466;28;20100;-91
2022/12/08 07:12:56;;;;;;;24.73;10.80;;;;;;;;;;5053513;28;20022;-92
2022/12/08 07:15:21;;;;;;;27.37;10.27;;;;;;;;;;5031125;28;20029;-92
2022/12/08 07:17:47;;;;;;;21.13;10.87;;;;;;;;;;5027015;28;20032;-93
2022/12/08 07:20:12;;;;;;;20.73;9.90;;;;;;;;;;5039111;28;20445;-92
2022/12/08 07:22:38;;;;;;;24.83;10.43;;;;;;;;;;5047675;28;20036;-91
2022/12/08 07:25:04;;;;;;;25.67;12.13;;;;;;;;;;5045124;28;20120;-90
2022/12/08 07:27:29;;;;;;;23.20;10.30;;;;;;;;;;5029719;28;20021;-92
2022/12/08 07:29:54;;;;;;;24.57;11.23;;;;;;;;;;5034205;28;20053;-89
2022/12/08 07:32:19;;;;;;;21.07;8.80;;;;;;;;;;5038326;28;20022;-89
2022/12/08 07:34:45;;;;;;;25.67;10.63;;;;;;;;;;5034091;28;20087;-89
2022/12/08 07:37:10;;;;;;;29.93;11.47;;;;;;;;;;5030363;28;20600;-89
2022/12/08 07:39:35;;;;;;;20.90;10.70;;;;;;;;;;5029920;28;20029;-88
2022/12/08 07:42:00;;;;;;;26.83;12.20;;;;;;;;;;5032889;28;20017;-88
2022/12/08 07:44:26;;;;;;;23.03;9.63;;;;;;;;;;5027502;28;20053;-89
2022/12/08 07:46:51;;;;;;;19.43;9.57;;;;;;;;;;5035044;28;20022;-89
2022/12/08 07:49:16;;;;;;;18.33;9.37;;;;;;;;;;5049586;28;20019;-90
2022/12/08 07:51:41;;;;;;;21.80;9.87;;;;;;;;;;5029459;28;20117;-90
2022/12/08 07:54:10;;;;;;;20.83;9.10;;;;;;;;;;5041898;28;20044;-90
2022/12/08 07:56:35;;;;;;;20.20;9.53;;;;;;;;;;5050642;28;20111;-88
2022/12/08 07:59:02;;;;;;;23.07;9.93;;;;;;;;;;5039708;28;20037;-90
2022/12/08 08:01:29;;;;;;;24.03;9.30;;;;;;;;;;5038735;28;20037;-90
2022/12/08 08:03:56;;;;;;;19.43;9.67;;;;;;;;;;5037674;28;20022;-90
2022/12/08 08:06:22;;;;;;;22.07;8.57;;;;;;;;;;5038174;28;20469;-89
2022/12/08 08:08:47;;;;;;;22.37;10.67;;;;;;;;;;5029130;28;20032;-89
2022/12/08 08:11:12;;;;;;;22.97;8.37;;;;;;;;;;5030463;28;20017;-89
2022/12/08 08:13:37;;;;;;;21.13;8.83;;;;;;;;;;5047192;28;20082;-89
2022/12/08 08:16:06;;;;;;;22.13;7.83;;;;;;;;;;5032068;28;20052;-89
2022/12/08 08:18:32;;;;;;;20.50;9.10;;;;;;;;;;5047849;28;20025;-89
2022/12/08 08:20:58;;;;;;;23.07;9.13;;;;;;;;;;5047859;28;20120;-89
2022/12/08 08:23:23;;;;;;;19.23;8.57;;;;;;;;;;5040783;28;20065;-90
2022/12/08 08:25:48;;;;;;;19.97;8.20;;;;;;;;;;5051748;28;20116;-90
2022/12/08 08:28:14;;;;;;;20.23;7.73;;;;;;;;;;5051625;28;20093;-90
2022/12/08 08:30:39;;;;;;;21.27;8.33;;;;;;;;;;5049652;28;20021;-90
2022/12/08 08:33:04;;;;;;;19.77;8.63;;;;;;;;;;5034656;28;20018;-89
2022/12/08 08:35:29;;;;;;;21.30;8.83;;;;;;;;;;5051649;28;20064;-89
2022/12/08 08:37:55;;;;;;;18.50;7.70;;;;;;;;;;5034806;28;20027;-90
2022/12/08 08:40:20;;;;;;;17.77;6.90;;;;;;;;;;5050784;28;20477;-89
2022/12/08 08:42:45;;;;;;;22.70;9.00;;;;;;;;;;5051431;28;20017;-90
2022/12/08 08:45:10;;;;;;;20.67;8.77;;;;;;;;;;5051485;28;20068;-90
2022/12/08 08:47:35;;;;;;;18.70;8.30;;;;;;;;;;5052408;28;20363;-89
2022/12/08 08:50:01;;;;;;;26.37;8.87;;;;;;;;;;5033723;28;20091;-89
2022/12/08 08:52:26;;;;;;;25.93;10.07;;;;;;;;;;5045908;28;20026;-89
2022/12/08 08:54:51;;;;;;;18.93;8.90;;;;;;;;;;5027600;28;20025;-88
2022/12/08 08:57:16;;;;;;;19.13;9.00;;;;;;;;;;5035961;28;20377;-90
2022/12/08 08:59:42;;;;;;;23.20;9.73;;;;;;;;;;5034396;28;20438;-90
2022/12/08 09:02:14;;;;;;;22.77;8.00;;;;;;;;;;5035183;28;20079;-91
2022/12/08 09:04:39;;;;;;;17.65;8.35;;;;;;;;;;5053890;28;20120;-89
2022/12/08 09:07:05;;;;;;;17.30;8.20;;;;;;;;;;5038290;28;20049;-90
2022/12/08 09:09:30;;;;;;;21.50;8.97;;;;;;;;;;5038559;28;20013;-90
2022/12/08 09:11:55;;;;;;;18.67;8.60;;;;;;;;;;5034456;28;20021;-91
2022/12/08 09:14:22;;;;;;;20.47;8.83;;;;;;;;;;5034639;28;20397;-90
2022/12/08 09:16:47;;;;;;;16.93;8.47;;;;;;;;;;5034838;28;20034;-90
2022/12/08 09:19:12;;;;;;;18.17;7.27;;;;;;;;;;5050761;28;20080;-90
2022/12/08 09:21:38;;;;;;;16.03;9.00;;;;;;;;;;5036812;28;20029;-90
2022/12/08 09:24:03;;;;;;;17.30;7.60;;;;;;;;;;5043171;28;20120;-90
2022/12/08 09:26:28;;;;;;;22.87;8.97;;;;;;;;;;5040528;28;20453;-90
2022/12/08 09:28:54;;;;;;;19.00;8.50;;;;;;;;;;5035146;28;20045;-90
2022/12/08 09:31:20;;;;;;;18.50;7.83;;;;;;;;;;5036713;28;20013;-91
2022/12/08 09:33:46;;;;;;;19.37;9.07;;;;;;;;;;5035053;28;20029;-91
2022/12/08 09:36:11;;;;;;;18.23;7.47;;;;;;;;;;5031954;28;20129;-92
2022/12/08 09:38:37;;;;;;;22.37;9.10;;;;;;;;;;5032764;28;20441;-90
2022/12/08 09:41:04;;;;;;;23.33;8.57;;;;;;;;;;5034180;28;20117;-91
2022/12/08 09:43:50;;;;;;;19.13;7.77;;;;;;;;;;5033637;28;20029;-92
2022/12/08 09:46:16;;;;;;;17.07;9.00;;;;;;;;;;5043619;28;20030;-92
2022/12/08 09:48:44;;;;;;;18.83;8.10;;;;;;;;;;5051951;28;20075;-92
2022/12/08 09:51:10;;;;;;;16.90;8.23;;;;;;;;;;5052737;28;20044;-92
2022/12/08 09:53:41;;;;;;;26.17;9.37;;;;;;;;;;5038385;28;20091;-93
2022/12/08 09:56:09;;;;;;;20.50;7.67;;;;;;;;;;5042253;28;20025;-87
2022/12/08 09:58:34;;;;;;;15.73;7.50;;;;;;;;;;5029201;28;20060;-87
2022/12/08 10:01:00;;;;;;;19.67;8.50;;;;;;;;;;5050216;28;20428;-92
2022/12/08 10:03:26;;;;;;;21.57;8.27;;;;;;;;;;5049336;28;20116;-91
2022/12/08 10:06:00;;;;;;;15.67;7.63;;;;;;;;;;5049178;28;20331;-93
2022/12/08 10:08:34;;;;;;;19.30;8.20;;;;;;;;;;5049159;28;20430;-92
2022/12/08 10:11:03;;;;;;;18.37;8.03;;;;;;;;;;5038377;28;20099;-91
2022/12/08 10:13:33;;;;;;;21.30;7.63;;;;;;;;;;5037228;28;20084;-90
2022/12/08 10:16:28;;;;;;;19.13;8.80;;;;;;;;;;5044836;28;20032;-90
2022/12/08 10:19:19;;;;;;;16.77;9.20;;;;;;;;;;5036156;28;20080;-90
2022/12/08 10:21:44;;;;;;;22.53;9.87;;;;;;;;;;5034151;28;20033;-87
2022/12/08 10:24:28;;;;;;;21.13;9.10;;;;;;;;;;5044603;28;20116;-91
2022/12/08 10:26:54;;;;;;;19.33;8.80;;;;;;;;;;5034967;28;20508;-89
2022/12/08 10:29:19;;;;;;;19.17;9.03;;;;;;;;;;5016158;28;20029;-90
2022/12/08 10:31:44;;;;;;;24.03;9.17;;;;;;;;;;5042614;28;20026;-90
2022/12/08 10:34:17;;;;;;;16.57;8.43;;;;;;;;;;5019902;28;20034;-90
2022/12/08 10:36:43;;;;;;;18.73;9.10;;;;;;;;;;5031665;28;20025;-90
2022/12/08 10:39:27;;;;;;;16.63;8.67;;;;;;;;;;5022271;28;20053;-90
2022/12/08 10:41:53;;;;;;;16.13;8.33;;;;;;;;;;5031846;28;20064;-90
2022/12/08 10:44:18;;;;;;;20.70;10.20;;;;;;;;;;5027801;28;20017;-91
2022/12/08 10:46:43;;;;;;;27.03;9.17;;;;;;;;;;5032586;28;20018;-93
2022/12/08 10:49:10;;;;;;;22.63;8.93;;;;;;;;;;5032766;28;20014;-91
2022/12/08 10:51:37;;;;;;;21.83;10.00;;;;;;;;;;5041693;28;20021;-90
2022/12/08 10:54:04;;;;;;;23.63;10.27;;;;;;;;;;5028697;28;20037;-90
2022/12/08 10:56:30;;;;;;;25.80;10.27;;;;;;;;;;5028102;28;20102;-90
2022/12/08 10:59:10;;;;;;;22.13;10.20;;;;;;;;;;5031212;28;20052;-90
2022/12/08 11:01:37;;;;;;;26.13;12.23;;;;;;;;;;5030498;28;20461;-91
2022/12/08 11:04:04;;;;;;;19.97;10.07;;;;;;;;;;5023168;28;20095;-90
2022/12/08 11:06:29;;;;;;;25.43;11.03;;;;;;;;;;5032312;28;20025;-90
2022/12/08 11:08:58;;;;;;;30.00;9.97;;;;;;;;;;5048343;28;20018;-91
2022/12/08 11:11:56;;;;;;;22.83;10.90;;;;;;;;;;5047872;28;20120;-88
2022/12/08 11:14:27;;;;;;;22.97;12.30;;;;;;;;;;5020233;28;20021;-90
2022/12/08 11:17:13;;;;;;;25.33;9.63;;;;;;;;;;5031589;28;20029;-90
2022/12/08 11:19:40;;;;;;;24.37;10.83;;;;;;;;;;5035602;28;20552;-91
2022/12/08 11:22:24;;;;;;;24.40;9.73;;;;;;;;;;5032097;28;20075;-90
2022/12/08 11:25:15;;;;;;;21.23;8.80;;;;;;;;;;5036381;28;20029;-89
2022/12/08 11:27:43;;;;;;;20.10;9.17;;;;;;;;;;5030021;28;20030;-90
2022/12/08 11:30:13;;;;;;;23.67;9.77;;;;;;;;;;5031153;28;20470;-89
2022/12/08 11:32:41;;;;;;;19.70;8.20;;;;;;;;;;5031749;28;20022;-90
2022/12/08 11:35:08;;;;;;;21.10;8.37;;;;;;;;;;5031813;28;20040;-93
2022/12/08 11:37:37;;;;;;;21.63;8.97;;;;;;;;;;5032701;28;20087;-91
2022/12/08 11:40:07;;;;;;;21.27;8.97;;;;;;;;;;5023905;28;20018;-90
2022/12/08 11:42:37;;;;;;;19.70;9.40;;;;;;;;;;5048151;28;20021;-90
2022/12/08 11:45:10;;;;;;;20.73;8.90;;;;;;;;;;5031275;28;20517;-90
2022/12/08 11:48:00;;;;;;;19.23;6.87;;;;;;;;;;5039692;28;20021;-92
2022/12/08 11:50:32;;;;;;;18.10;8.30;;;;;;;;;;5031689;28;20113;-92
2022/12/08 11:52:58;;;;;;;16.60;8.02;;;;;;;;;;5031692;28;20032;-90
2022/12/08 11:55:23;;;;;;;24.77;9.47;;;;;;;;;;5031320;28;20362;-91
2022/12/08 11:57:49;;;;;;;18.80;9.53;;;;;;;;;;5049619;28;20021;-92
2022/12/08 12:00:15;;;;;;;25.20;8.90;;;;;;;;;;5052618;28;20045;-92
2022/12/08 12:02:44;;;;;;;22.13;8.07;;;;;;;;;;5057829;28;20026;-92
2022/12/08 12:05:19;;;;;;;20.43;8.83;;;;;;;;;;5034228;28;20025;-93
2022/12/08 12:08:04;;;;;;;20.23;8.63;;;;;;;;;;5043722;28;20025;-96
2022/12/08 12:10:45;;;;;;;21.60;7.57;;;;;;;;;;5050662;28;20030;-94
2022/12/08 12:13:20;;;;;;;23.90;8.80;;;;;;;;;;5042960;28;20453;-94
2022/12/08 12:15:45;;;;;;;22.67;8.23;;;;;;;;;;5053249;28;20033;-93
2022/12/08 12:18:31;;;;;;;21.77;8.23;;;;;;;;;;5053594;28;20022;-93
2022/12/08 12:21:00;;;;;;;24.57;8.77;;;;;;;;;;5038965;28;20040;-93
2022/12/08 12:23:40;;;;;;;15.57;7.43;;;;;;;;;;5033893;28;20033;-90
2022/12/08 12:26:07;;;;;;;20.27;7.60;;;;;;;;;;5051252;28;20017;-91
2022/12/08 12:28:39;;;;;;;21.00;8.53;;;;;;;;;;5037900;28;20029;-93
2022/12/08 12:31:05;;;;;;;20.27;7.43;;;;;;;;;;5041209;28;20006;-93
2022/12/08 12:33:31;;;;;;;19.50;7.57;;;;;;;;;;5037998;28;20028;-91
2022/12/08 12:36:00;;;;;;;17.33;6.77;;;;;;;;;;5035165;28;20104;-91
2022/12/08 12:41:25;;;;;;;19.33;8.63;;;;;;;;;;5032287;28;20056;-91
2022/12/08 12:44:05;;;;;;;20.77;8.53;;;;;;;;;;5034786;28;20028;-91
2022/12/08 12:46:33;;;;;;;20.87;7.60;;;;;;;;;;5028873;28;20017;-91
2022/12/08 12:49:17;;;;;;;20.00;8.30;;;;;;;;;;5041490;28;20106;-92
2022/12/08 12:51:46;;;;;;;20.33;8.17;;;;;;;;;;5032092;28;20028;-92
2022/12/08 12:54:25;;;;;;;16.70;7.57;;;;;;;;;;5037888;28;20457;-91
2022/12/08 12:56:50;;;;;;;21.20;7.60;;;;;;;;;;5032657;28;20032;-92
2022/12/08 12:59:30;;;;;;;18.60;7.53;;;;;;;;;;5035922;28;20017;-92
2022/12/08 13:01:55;;;;;;;21.93;7.43;;;;;;;;;;5049465;28;20075;-92
2022/12/08 13:04:29;;;;;;;24.17;8.17;;;;;;;;;;5051249;28;20029;-92
2022/12/08 13:06:54;;;;;;;22.63;9.23;;;;;;;;;;5051130;28;20017;-92
2022/12/08 13:09:28;;;;;;;16.97;7.20;;;;;;;;;;5050110;28;20010;-92
2022/12/08 13:11:55;;;;;;;17.57;7.17;;;;;;;;;;5034630;28;20418;-94
2022/12/08 13:14:28;;;;;;;20.53;8.80;;;;;;;;;;5034101;28;20022;-91
2022/12/08 13:16:54;;;;;;;25.53;8.70;;;;;;;;;;5034429;28;20591;-92
2022/12/08 13:19:20;;;;;;;21.97;8.47;;;;;;;;;;5034500;28;20508;-89
2022/12/08 13:21:45;;;;;;;19.43;8.67;;;;;;;;;;5033696;28;20022;-89
2022/12/08 13:24:11;;;;;;;16.23;7.43;;;;;;;;;;5046373;28;20025;-89
2022/12/08 13:26:55;;;;;;;28.20;8.43;;;;;;;;;;5037390;28;20022;-89
2022/12/08 13:29:21;;;;;;;20.33;7.03;;;;;;;;;;5031165;28;20073;-88
2022/12/08 13:31:56;;;;;;;17.57;7.73;;;;;;;;;;5041833;28;20025;-88
2022/12/08 13:34:40;;;;;;;22.03;6.83;;;;;;;;;;5029760;28;20021;-88
2022/12/08 13:37:09;;;;;;;9.97;3.57;;;;;;;;;;5034979;28;20018;-88
2022/12/08 13:39:55;;;;;;;19.60;5.33;;;;;;;;;;5049967;28;20070;-88
2022/12/08 13:42:20;;;;;;;15.30;6.13;;;;;;;;;;5050044;28;20487;-88
2022/12/08 13:45:02;;;;;;;11.07;4.43;;;;;;;;;;5045224;28;20108;-88
2022/12/08 13:47:30;;;;;;;12.97;6.57;;;;;;;;;;5048108;28;20032;-88
2022/12/08 13:50:03;;;;;;;14.70;5.83;;;;;;;;;;5032490;28;20025;-88
2022/12/08 13:52:37;;;;;;;16.57;6.53;;;;;;;;;;5021728;28;20030;-88
2022/12/08 13:55:03;;;;;;;13.80;5.37;;;;;;;;;;5047573;28;20033;-88
2022/12/08 13:57:30;;;;;;;16.50;5.70;;;;;;;;;;5035760;28;20025;-87
2022/12/08 13:59:59;;;;;;;15.60;5.43;;;;;;;;;;5046726;28;20413;-88
2022/12/08 14:02:27;;;;;;;17.17;6.87;;;;;;;;;;5032863;28;20033;-88
2022/12/08 14:04:53;;;;;;;18.63;7.23;;;;;;;;;;5026480;28;20060;-88
2022/12/08 14:07:18;;;;;;;19.17;6.70;;;;;;;;;;5034173;28;20022;-89
2022/12/08 14:09:44;;;;;;;17.20;7.40;;;;;;;;;;5048327;28;20398;-89
2022/12/08 14:12:21;;;;;;;19.07;7.63;;;;;;;;;;5044422;28;20076;-89
2022/12/08 14:14:47;;;;;;;14.00;6.43;;;;;;;;;;5042102;28;20018;-91
2022/12/08 14:17:22;;;;;;;14.70;6.67;;;;;;;;;;5032915;28;20034;-90
2022/12/08 14:19:57;;;;;;;15.03;6.23;;;;;;;;;;5049845;28;20026;-88
2022/12/08 14:22:23;;;;;;;14.10;5.73;;;;;;;;;;5032358;28;20033;-91
2022/12/08 14:24:52;;;;;;;13.17;6.97;;;;;;;;;;5033733;28;20079;-88
2022/12/08 14:27:20;;;;;;;16.53;6.43;;;;;;;;;;5030771;28;20449;-89
2022/12/08 14:29:51;;;;;;;15.13;6.37;;;;;;;;;;5032149;28;20022;-88
2022/12/08 14:32:34;;;;;;;13.47;6.43;;;;;;;;;;5049331;28;20045;-89
2022/12/08 14:35:06;;;;;;;17.40;7.30;;;;;;;;;;5049053;28;20021;-89
2022/12/08 14:37:32;;;;;;;15.02;7.53;;;;;;;;;;5032714;28;20021;-89